createdAt,value
2018-08-24T00:03:24.246Z,100351.00
2018-08-24T00:11:45.352Z,100343.63
2018-08-24T00:20:06.416Z,100340.55
2018-08-24T00:28:27.412Z,100323.64
2018-08-24T00:36:48.427Z,100325.81
2018-08-24T00:45:09.491Z,100322.80
2018-08-24T00:53:30.510Z,100332.85
2018-08-24T01:01:51.628Z,100341.38
2018-08-24T01:10:12.694Z,100349.42
2018-08-24T01:18:34.829Z,100329.48
2018-08-24T01:34:12.081Z,100321.92
2018-08-24T01:42:33.117Z,100325.50
2018-08-24T01:50:54.120Z,100330.81
2018-08-24T01:59:15.159Z,100323.44
2018-08-24T02:07:36.173Z,100332.50
2018-08-24T02:15:57.177Z,100327.31
2018-08-24T02:24:18.272Z,100329.52
2018-08-24T02:32:39.320Z,100323.33
2018-08-24T02:41:00.364Z,100325.77
2018-08-24T02:49:21.360Z,100335.17
2018-08-24T02:57:42.467Z,100323.77
2018-08-24T03:06:03.496Z,100316.83
2018-08-24T03:14:24.515Z,100329.86
2018-08-24T03:22:45.580Z,100324.30
2018-08-24T03:31:06.650Z,100331.92
2018-08-24T03:39:27.647Z,100333.78
2018-08-24T03:47:48.650Z,100344.06
2018-08-24T03:56:09.713Z,100342.02
2018-08-24T04:04:30.775Z,100359.05
2018-08-24T04:12:51.951Z,100356.97
2018-08-24T04:21:13.039Z,100356.19
2018-08-24T04:29:34.308Z,100350.36
2018-08-24T04:37:55.346Z,100350.75
2018-08-24T04:46:16.367Z,100354.27
2018-08-24T04:54:37.398Z,100358.63
2018-08-24T05:02:58.456Z,100365.09
2018-08-24T05:11:19.599Z,100364.96
2018-08-24T05:23:51.251Z,100369.37
2018-08-24T05:32:12.279Z,100373.05
2018-08-24T05:40:33.326Z,100377.77
2018-08-24T05:48:54.523Z,100370.09
2018-08-24T05:57:15.517Z,100385.41
2018-08-24T06:05:36.650Z,100380.19
2018-08-24T06:13:57.689Z,100389.34
2018-08-24T06:22:18.712Z,100395.86
2018-08-24T06:30:39.761Z,100387.80
2018-08-24T06:39:00.830Z,100397.59
2018-08-24T06:47:21.952Z,100408.93
2018-08-24T06:55:42.902Z,100415.14
2018-08-24T07:04:03.967Z,100411.50
2018-08-24T07:12:25.107Z,100409.83
2018-08-24T07:20:46.147Z,100421.25
2018-08-24T07:29:07.223Z,100441.14
2018-08-24T08:16:50.615Z,100441.14
2018-08-24T08:25:15.907Z,100441.14
2018-08-24T10:45:39.323Z,100564.86
2018-08-24T10:54:00.326Z,100567.83
2018-08-24T11:02:21.385Z,100564.80
2018-08-24T11:10:42.432Z,100563.22
2018-08-24T11:19:04.521Z,100549.79
2018-08-24T11:27:25.664Z,100566.36
2018-08-24T11:35:46.732Z,100566.81
2018-08-24T11:44:07.731Z,100563.33
2018-08-24T11:52:29.804Z,100561.80
2018-08-24T12:00:50.852Z,100557.34
2018-08-24T12:09:11.913Z,100561.95
2018-08-24T12:19:16.980Z,100568.94
2018-08-24T12:27:37.991Z,100563.83
2018-08-24T12:35:59.087Z,100563.17
2018-08-24T12:44:20.126Z,100541.92
2018-08-24T12:52:41.156Z,100542.52
2018-08-24T13:01:02.194Z,100544.19
2018-08-24T13:09:24.306Z,100541.25
2018-08-24T13:17:45.322Z,100533.45
2018-08-24T13:26:06.345Z,100531.55
2018-08-24T13:34:27.364Z,100516.74
2018-08-24T13:42:48.494Z,100520.15
2018-08-24T13:51:09.896Z,100523.47
2018-08-24T13:59:30.988Z,100538.23
2018-08-24T14:07:51.960Z,100537.95
2018-08-24T14:16:12.989Z,100531.87
2018-08-24T14:24:34.015Z,100521.50
2018-08-24T14:32:55.397Z,100517.17
2018-08-24T14:41:17.522Z,100508.14
2018-08-24T14:49:38.530Z,100506.85
2018-08-24T14:57:59.851Z,100511.09
2018-08-24T15:06:20.856Z,100500.14
2018-08-24T15:14:41.897Z,100507.69
2018-08-24T15:23:03.014Z,100489.48
2018-08-24T15:31:25.130Z,100501.20
2018-08-24T15:39:46.252Z,100497.27
2018-08-24T15:48:07.271Z,100511.21
2018-08-24T15:56:28.272Z,100514.26
2018-08-24T16:04:49.310Z,100511.52
2018-08-24T16:13:12.415Z,100508.87
2018-08-24T16:30:00.423Z,100506.73
2018-08-24T16:38:21.451Z,100511.55
2018-08-24T16:46:42.506Z,100503.56
2018-08-24T16:55:03.559Z,100508.72
2018-08-24T17:03:24.585Z,100511.74
2018-08-24T17:11:45.755Z,100514.17
2018-08-24T17:20:08.828Z,100503.22
2018-08-24T17:28:30.938Z,100507.91
2018-08-24T17:36:51.940Z,100506.84
2018-08-24T17:45:13.287Z,100509.27
2018-08-24T17:53:34.318Z,100508.64
2018-08-24T18:01:55.359Z,100514.78
2018-08-24T18:10:16.399Z,100515.78
2018-08-24T18:18:37.396Z,100513.28
2018-08-24T18:26:58.392Z,100524.40
2018-08-24T18:35:19.426Z,100513.30
2018-08-24T18:43:40.517Z,100516.94
2018-08-24T18:52:01.544Z,100530.92
2018-08-24T19:00:23.620Z,100531.16
2018-08-24T19:08:44.708Z,100541.03
2018-08-24T19:17:05.736Z,100537.67
2018-08-24T19:25:26.847Z,100544.77
2018-08-24T19:33:47.920Z,100544.98
2018-08-24T19:42:08.943Z,100544.88
2018-08-24T19:50:29.960Z,100538.53
2018-08-24T19:58:51.053Z,100530.27
2018-08-24T20:07:12.043Z,100529.05
2018-08-24T20:15:33.060Z,100528.41
2018-08-24T20:23:54.200Z,100523.79
2018-08-24T20:38:56.136Z,100507.76
2018-08-24T20:47:17.209Z,100501.46
2018-08-24T20:55:38.245Z,100502.09
2018-08-24T21:08:19.267Z,100491.73
2018-08-24T21:16:40.314Z,100492.78
2018-08-24T21:25:01.308Z,100490.47
2018-08-24T21:33:22.346Z,100471.94
2018-08-24T21:41:43.462Z,100470.44
2018-08-24T21:50:04.495Z,100469.88
2018-08-24T21:58:25.520Z,100463.90
2018-08-24T22:06:46.595Z,100458.11
2018-08-24T22:15:07.615Z,100468.38
2018-08-24T22:23:28.620Z,100466.57
2018-08-24T22:31:49.635Z,100471.22
2018-08-24T22:40:10.750Z,100473.55
2018-08-24T22:48:31.748Z,100457.63
2018-08-24T22:56:52.858Z,100440.29
2018-08-24T23:05:13.992Z,100434.31
2018-08-24T23:13:35.031Z,100422.02
2018-08-24T23:24:06.475Z,100414.43
2018-08-24T23:32:28.584Z,100404.13
2018-08-24T23:40:49.670Z,100392.58
2018-08-24T23:49:10.799Z,100388.19
2018-08-24T23:57:31.797Z,100379.81
